• Join FlightAware (Why Join?)
  • Login
  • US Flag 
06:21AM EDT


 

Airport Tracker/Info


-or-


 

Live Flight TrackerFlight Track Log ✈ NKS142 ✈ 17-Jun-2013 ✈ MDSD / SDQ - KFLL

Flight Track Log - Related Links

Times and Time Zones

All times are in EDT time to prevent confusion due to time zone crossing. See the NKS142 flight status page for this flight to view local times or setup timezone preferences in your user account.

Time Position Orientation Groundspeed Altitude Reporting Facility
EDT Latitude Longitude Course Direction KTS MPH feet Rate Location/Type
05:27PM 19.1780 -69.8540 308° West  Level FlightAware Approximate
05:28PM 19.2705 -69.9655 312° West  Level FlightAware Approximate
05:29PM 19.3587 -70.0807 308° West  Level FlightAware Approximate
05:30PM 19.4464 -70.1964 317° Northwest  Level FlightAware Approximate
05:31PM 19.5414 -70.3052 309° West  Level FlightAware Approximate
05:31PM 20.3403 -72.0661 293° West 433 498 30,000  Level Miami Center
05:32PM 19.6287 -70.4216 309° West  Level FlightAware Approximate
05:32PM 20.3856 -72.1817 293° West 433 498 30,000  Level Miami Center
05:33PM 19.7250 -70.5292 305° West  Level FlightAware Approximate
05:33PM 20.4347 -72.2950 295° West 428 493 30,000  Level Miami Center
05:34PM 19.7868 -70.6619 292° West  Level FlightAware Approximate
05:34PM 20.5167 -72.3875 313° West 421 484 30,000  Level Miami Center
05:35PM 19.8398 -70.7998 292° West  Level FlightAware Approximate
05:35PM 20.5983 -72.4756 315° West 421 484 30,000  Level Miami Center
05:36PM 19.8928 -70.9378 292° West  Level FlightAware Approximate
05:36PM 20.6822 -72.5639 315° West 421 484 30,000  Level Miami Center
05:37PM 19.9321 -71.0397 293° West  Level FlightAware Approximate
05:37PM 20.7617 -72.6500 315° West 421 484 30,000  Level Miami Center
05:38PM 20.8456 -72.7428 314° West 421 484 30,000  Level Miami Center
05:39PM 20.9253 -72.8314 314° West 421 484 30,000  Level Miami Center
05:40PM 21.0067 -72.9225 314° West 421 484 30,000  Level Miami Center
05:41PM 21.0925 -73.0111 316° Northwest 421 484 30,000  Level Miami Center
05:42PM 21.1719 -73.1000 314° West 421 484 30,000  Level Miami Center
05:43PM 21.2556 -73.1911 315° West 421 484 30,000  Level Miami Center
05:44PM 21.3389 -73.2803 315° West 421 484 30,000  Level Miami Center
05:45PM 21.4142 -73.3697 312° West 421 484 30,000  Level Miami Center
05:46PM 21.4997 -73.4611 315° West 426 490 30,000  Level Miami Center
05:47PM 21.5811 -73.5528 314° West 415 478 30,000  Level Miami Center
05:48PM 21.6603 -73.6422 314° West 415 478 30,000  Level Miami Center
05:49PM 21.7456 -73.7342 315° West 415 478 30,000  Level Miami Center
05:50PM 21.8267 -73.8261 314° West 415 478 30,000  Level Miami Center
05:51PM 21.9078 -73.9161 314° West 413 475 30,000  Level Miami Center
05:52PM 21.9697 -73.9842 314° West 418 481 30,000  Level Miami Center
05:53PM 22.0572 -74.0919 311° West 418 481 30,000  Level Miami Center
05:54PM 22.1383 -74.1822 314° West 418 481 30,000  Level Miami Center
05:55PM 22.2192 -74.2747 313° West 418 481 30,000  Level Miami Center
05:56PM 22.3022 -74.3672 314° West 418 481 30,000  Level Miami Center
05:57PM 22.3853 -74.4556 315° West 418 481 30,000  Level Miami Center
05:58PM 22.4639 -74.5508 312° West 418 481 30,000  Level Miami Center
05:59PM 22.5447 -74.6414 314° West 418 481 30,000  Level Miami Center
06:00PM 22.6253 -74.7325 314° West 423 487 30,000  Level Miami Center
06:01PM 22.7081 -74.8256 314° West 423 487 30,000  Level Miami Center
06:02PM 22.7886 -74.9167 314° West 423 487 30,000  Level Miami Center
06:03PM 22.8692 -75.0081 314° West 423 487 30,000  Level Miami Center
06:04PM 22.9478 -75.0992 313° West 423 487 30,000  Level Miami Center
06:05PM 23.0303 -75.1908 314° West 423 487 30,000  Level Miami Center
06:06PM 23.1106 -75.2844 313° West 423 487 30,000  Level Miami Center
06:07PM 23.1908 -75.3761 314° West 423 487 30,000  Level Miami Center
06:08PM 23.2733 -75.4681 314° West 423 487 30,000  Level Miami Center
06:09PM 23.3536 -75.5600 314° West 423 487 30,000  Level Miami Center
06:10PM 23.4336 -75.6497 314° West 418 481 30,000  Level Miami Center
06:11PM 23.5244 -75.7597 312° West 429 494 30,000  Level Miami Center
06:12PM 23.6086 -75.8544 314° West 442 509 30,000  Level Miami Center
06:13PM 23.6844 -75.9467 312° West 430 495 30,000  Level Miami Center
06:14PM 23.7644 -76.0417 313° West 425 489 30,000  Level Miami Center
06:15PM 23.8444 -76.1319 314° West 420 483 30,000  Level Miami Center
06:16PM 23.9242 -76.2292 312° West 420 483 30,000  Level Miami Center
06:17PM 24.0039 -76.3197 314° West 410 472 30,000  Level Miami Center
06:18PM 24.0836 -76.4128 313° West 410 472 30,000  Level Miami Center
06:19PM 24.1614 -76.5058 313° West 410 472 30,000  Level Miami Center
06:20PM 24.2408 -76.5992 313° West 410 472 30,000  Level Miami Center
06:21PM 24.3225 -76.6969 313° West 416 479 30,000  Level Miami Center
06:22PM 24.4019 -76.7903 313° West 416 479 30,000  Level Miami Center
06:23PM 24.4647 -76.8658 312° West 416 479 30,000  Level Miami Center
06:24PM 24.5525 -76.9686 313° West 416 479 30,000  Level Miami Center
06:25PM 24.6339 -77.0622 314° West 416 479 30,000  Level Miami Center
06:26PM 24.7111 -77.1586 311° West 416 479 30,000  Level Miami Center
06:27PM 24.7903 -77.2525 313° West 416 479 30,000  Level Miami Center
06:28PM 24.8672 -77.3467 312° West 416 479 30,000  Level Miami Center
06:29PM 24.9528 -77.4525 312° West 416 479 30,000  Level Miami Center
06:30PM 25.0294 -77.5492 311° West 427 491 30,000 -180 Level Miami Center
06:36PM 25.4430 -78.1600 311° West 408 470 28,800 -240 Descending FlightAware
06:37PM 25.4610 -78.2270 287° West 407 468 28,600 -1,080 Descending FlightAware
06:38PM 25.4900 -78.3280 288° West 403 464 27,300 -1,380 Descending FlightAware
06:38PM 25.5200 -78.4340 287° West 397 457 26,400 -1,380 Descending FlightAware
06:39PM 25.5430 -78.5150 287° West 394 453 25,200 -1,920 Descending FlightAware
06:40PM 25.5670 -78.6010 287° West 387 445 23,700 -1,980 Descending FlightAware
06:41PM 25.5880 -78.6770 287° West 381 438 22,400 -1,920 Descending FlightAware
06:41PM 25.6170 -78.7800 287° West 372 428 20,600 -1,980 Descending FlightAware
06:42PM 25.6370 -78.8520 287° West 367 422 19,300 -1,980 Descending FlightAware
06:43PM 25.6590 -78.9310 287° West 360 414 17,900 -1,920 Descending FlightAware
06:44PM 25.6780 -79.0020 287° West 357 411 16,600 -1,920 Descending FlightAware
06:44PM 25.7000 -79.0800 287° West 347 399 15,200 -1,860 Descending FlightAware
06:45PM 25.7180 -79.1480 286° West 345 397 14,000 -1,860 Descending FlightAware
06:46PM 25.7390 -79.2230 287° West 338 389 12,600 -1,860 Descending FlightAware
06:46PM 25.7570 -79.2900 287° West 330 380 11,400 -1,800 Descending FlightAware
06:47PM 25.7770 -79.3620 287° West 320 368 10,100 -1,680 Descending FlightAware
06:47PM 25.7850 -79.3930 286° West 318 366 9,600 -1,680 Descending FlightAware
06:48PM 25.8000 -79.4460 287° West 309 356 8,600 -1,740 Descending FlightAware
06:48PM 25.8100 -79.4850 286° West 305 351 7,900 -1,560 Descending FlightAware
06:49PM 25.8220 -79.5270 288° West 301 346 7,200 -1,500 Descending FlightAware
06:49PM 25.8330 -79.5670 287° West 298 343 6,500 -1,500 Descending FlightAware
06:50PM 25.8390 -79.5890 287° West 297 342 6,200 -840 Descending FlightAware
06:50PM 25.8500 -79.6300 287° West 283 326 5,900 -360 Descending FlightAware
06:51PM 25.8680 -79.6720 295° West 292 336 5,900  Level FlightAware
06:51PM 25.8740 -79.6860 295° West 293 337 5,900  Level FlightAware
06:51PM 25.8910 -79.7250 296° West 287 330 5,900  Level FlightAware
06:52PM 25.9000 -79.7460 295° West 286 329 5,900  Level FlightAware
06:52PM 25.9140 -79.7800 295° West 284 327 5,900  Level FlightAware
06:52PM 25.9310 -79.8210 295° West 286 329 5,900  Level FlightAware
06:53PM 25.9450 -79.8540 295° West 285 328 5,900  Level FlightAware
06:53PM 25.9600 -79.8870 297° West 283 326 5,900  Level FlightAware
06:54PM 25.9760 -79.9260 295° West 283 326 5,900  Level FlightAware
06:54PM 25.9940 -79.9670 296° West 283 326 5,900  Level FlightAware
06:55PM 26.0050 -79.9860 303° West 288 331 5,900  Level FlightAware
06:55PM 26.0320 -80.0160 315° West 282 325 5,900  Level FlightAware
06:56PM 26.0600 -80.0480 314° West 281 323 5,900  Level FlightAware
06:56PM 26.0800 -80.0700 315° West 282 325 5,900  Level FlightAware
06:56PM 26.0930 -80.0930 302° West 265 305 5,900  Level FlightAware
06:57PM 26.1010 -80.1240 286° West 245 282 5,900 -540 Level FlightAware
06:57PM 26.1100 -80.1610 285° West 250 288 5,400 -1,260 Descending FlightAware
06:57PM 26.1150 -80.1800 286° West 260 299 5,000 -720 Descending FlightAware
06:58PM 26.1250 -80.2180 286° West 245 282 4,900 -120 Descending FlightAware
06:58PM 26.1310 -80.2420 286° West 241 277 4,900 -120 Level FlightAware
06:59PM 26.1390 -80.2750 285° West 225 259 4,800 -720 Descending FlightAware
06:59PM 26.1410 -80.2930 277° West 205 236 4,400 -2,100 Descending FlightAware
06:59PM 26.1400 -80.3260 268° West 210 242 3,200 -2,400 Descending FlightAware
07:00PM 26.1360 -80.3360 246° West 203 234 2,800 -1,920 Descending FlightAware
07:00PM 26.1210 -80.3450 208° Southwest 178 205 2,300 -1,260 Descending FlightAware
07:00PM 26.1020 -80.3380 162° South 166 191 1,900 -480 Descending FlightAware
07:01PM 26.0920 -80.3200 122° Southeast 171 197 1,900  Level FlightAware
07:01PM 26.0830 -80.2960 113° Southeast 170 196 1,900 -360 Level FlightAware
07:02PM 26.0780 -80.2700 102° East 171 197 1,600 -660 Descending FlightAware
07:02PM 26.0780 -80.2520 90° East 158 182 1,300 -780 Descending FlightAware
07:03PM 26.0770 -80.2190 92° East 130 150 800 -720 Descending FlightAware
07:03PM 26.0770 -80.2010 90° East 126 145 500 -600 Descending FlightAware
07:04PM 26.0770 -80.1800 90° East 127 146 200 -600 Descending FlightAware
07:04PM 26.0770 -80.1640 90° East 125 144 -480 Descending FlightAware
07:05PM 26.0770 -80.1520 90° East 82 94  Level FlightAware
07:05PM 26.0760 -80.1460 101° East 12 14  Level FlightAware
07:11PM 26.0667 -80.1500 77° East  Level FlightAware Approximate
07:12PM 26.0726 -80.1527 77° East  Level Estimated